Jenners, Pennsylvania
Current Conditions -  °F | °C
As of 7:35 AM on Tuesday 27 Jan 2015 (Local Time) from K2G9 Reporting Station
Light Snow Light Snow  
Wind Chill:   Ceiling: 400
Heat Index: 16°   Visibility: 5mi
Dew Point: 14°   Wind: 8mph
Humidity: 93%   Direction: 310°NW
Pressure: 29.78"   Gusts: NA
Location:  40.14°N, 79.04°W
Report Text: K2G9 271235Z AUTO 31007KT 5SM -SN OVC004 M09/M10 A2978 RMK AO2
Loading
Personal Weather Stations






























Interactive Weather Map New forecast layout! Learn more

10-Day Weather Forecast

Advertisements
Track Severe Weather on mobile